Terminal Aerodrome Forecast
Issued by NWS Wilmington, NC

Home | Current Version | Previous Version | Text Only | Print | Product List | Glossary On
Versions: 1 2 3 4 5 6 7 8 9 10 11 12 13 14 15 16 17 18 19 20 21 22 23 24 25 26 27 28
000
FTUS42 KILM 270523
TAFILM
TAF
KILM 270523Z 2706/2806 20008KT P6SM -SHRA SCT060 OVC120
     FM270800 22008KT 6SM -SHRA BKN050 OVC100
      TEMPO 2708/2711 4SM SHRA BR FEW008 BKN025
     FM271200 24008KT 6SM BR VCSH BKN008 OVC090
      TEMPO 2716/2718 24025KT 1SM +TSRA BKN012CB
     FM271800 34012G20KT 6SM -RA BKN008 OVC012=

USA.gov is the U.S. government's official web portal to all federal, state and local government web resources and services.